Friday, January 18, 2019, 2:32 AM EST
Back to Local

KCON, Concord, Concord Municipal Airport

Location: Concord, NH, United States Lat: 43.195
Local Time: 2:32 AM EST ( 7:32 GMT) Lon: -71.501
Time Zone: US/Eastern Elev: 344 ft

Show me the last for .
Show Coded

Time T Td Feel RH Dir Speed Gust Alt SLP Vis Weather Sky Remarks
2019-01-18 01:51 17 8 - 67 - Calm - 30.24 30.26 10 BKN060 OVC085 None
2019-01-18 00:51 17 7 - 63 - Calm - 30.26 30.28 10 BKN080 OVC100 6-hr Min Temp (1am): 15.1°F
6-hr Max Temp (1am): 18.0°F
2019-01-17 23:51 17 6 - 61 - Calm - 30.29 30.31 10 OVC095 24-hr Min Temp (12am): 6.1°F
24-hr Max Temp (12am): 23.0°F
2019-01-17 22:51 17 4 - 55 - Calm - 30.30 30.32 10 OVC100 None
2019-01-17 21:51 16 4 - 58 - Calm - 30.31 30.33 10 FEW120 None
2019-01-17 20:51 16 6 10 64 70° 3 - 30.31 30.34 10 CLR None
2019-01-17 19:51 16 5 - 61 - Calm - 30.32 30.34 10 SCT120 None
2019-01-17 18:51 16 3 - 55 - Calm - 30.32 30.35 10 SCT120 6-hr Min Temp (7pm): 15.1°F
6-hr Max Temp (7pm): 23.0°F
2019-01-17 17:51 15 5 - 63 - Calm - 30.32 30.34 10 CLR None
2019-01-17 16:51 19 -2 - 38 - Calm - 30.31 30.33 10 CLR None
2019-01-17 15:51 21 -3 15 33 10° 5 - 30.31 30.33 10 CLR None
2019-01-17 14:51 22 -2 16 34 340° 5 - 30.33 30.35 10 CLR None
2019-01-17 13:51 22 -3 16 32 360° 5 - 30.33 30.35 10 CLR None
2019-01-17 12:51 19 -3 12 36 300° 5 - 30.35 30.37 10 CLR 6-hr Min Temp (1pm): 6.1°F
6-hr Max Temp (1pm): 19.0°F
2019-01-17 11:51 17 -1 7 44 320° 8 - 30.37 30.39 10 CLR None
2019-01-17 10:51 14 -2 1 48 310° 10 - 30.41 30.43 10 CLR None
2019-01-17 09:51 12 -2 0 52 320° 9 - 30.42 30.43 10 CLR None
2019-01-17 08:51 9 -2 -4 60 330° 9 - 30.40 30.41 10 CLR None
2019-01-17 07:51 7 -3 -7 62 310° 9 - 30.37 30.39 10 CLR None
2019-01-17 06:51 6 -3 -3 65 340° 5 - 30.36 30.38 10 CLR 6-hr Min Temp (7am): 6.1°F
6-hr Max Temp (7am): 16.0°F
2019-01-17 05:51 8 -3 0 59 340° 5 - 30.35 30.37 10 CLR None
2019-01-17 04:51 9 -1 1 63 350° 5 - 30.32 30.34 10 CLR None
2019-01-17 03:51 11 -1 -8 57 320° 16 22 30.30 30.32 10 CLR None
2019-01-17 02:51 12 -1 -1 55 310° 10 - 30.28 30.30 10 CLR None

Support USWX by starting your Amazon purchase here.